sensor_id;sensor_type;location;lat;lon;timestamp;temperature;humidity
23562;DHT22;11959;49.418;8.728;2024-01-07T00:00:22;6.00;99.90
23562;DHT22;11959;49.418;8.728;2024-01-07T00:02:47;6.00;99.90
23562;DHT22;11959;49.418;8.728;2024-01-07T00:05:13;6.10;99.90
23562;DHT22;11959;49.418;8.728;2024-01-07T00:07:38;6.10;99.90
23562;DHT22;11959;49.418;8.728;2024-01-07T00:10:04;6.10;99.90
23562;DHT22;11959;49.418;8.728;2024-01-07T00:12:31;6.10;99.90
23562;DHT22;11959;49.418;8.728;2024-01-07T00:14:56;6.10;99.90
23562;DHT22;11959;49.418;8.728;2024-01-07T00:17:22;6.10;99.90
23562;DHT22;11959;49.418;8.728;2024-01-07T00:19:48;6.10;99.90
23562;DHT22;11959;49.418;8.728;2024-01-07T00:22:14;6.10;99.90
23562;DHT22;11959;49.418;8.728;2024-01-07T00:24:39;6.10;99.90
23562;DHT22;11959;49.418;8.728;2024-01-07T00:27:05;6.00;99.90
23562;DHT22;11959;49.418;8.728;2024-01-07T00:29:31;6.10;99.90
23562;DHT22;11959;49.418;8.728;2024-01-07T00:31:56;6.10;99.90
23562;DHT22;11959;49.418;8.728;2024-01-07T00:34:22;6.10;99.90
23562;DHT22;11959;49.418;8.728;2024-01-07T00:36:48;6.10;99.90
23562;DHT22;11959;49.418;8.728;2024-01-07T00:39:13;6.10;99.90
23562;DHT22;11959;49.418;8.728;2024-01-07T00:41:39;6.10;99.90
23562;DHT22;11959;49.418;8.728;2024-01-07T00:44:04;6.10;99.90
23562;DHT22;11959;49.418;8.728;2024-01-07T00:46:30;6.10;99.90
23562;DHT22;11959;49.418;8.728;2024-01-07T00:48:56;6.10;99.90
23562;DHT22;11959;49.418;8.728;2024-01-07T00:51:21;6.10;99.90
23562;DHT22;11959;49.418;8.728;2024-01-07T00:53:47;6.00;99.90
23562;DHT22;11959;49.418;8.728;2024-01-07T00:56:12;6.10;99.90
23562;DHT22;11959;49.418;8.728;2024-01-07T00:58:38;6.00;99.90
23562;DHT22;11959;49.418;8.728;2024-01-07T01:01:05;6.10;99.90
23562;DHT22;11959;49.418;8.728;2024-01-07T01:03:31;6.10;99.90
23562;DHT22;11959;49.418;8.728;2024-01-07T01:05:56;6.10;99.90
23562;DHT22;11959;49.418;8.728;2024-01-07T01:08:22;6.00;99.90
23562;DHT22;11959;49.418;8.728;2024-01-07T01:10:48;6.00;99.90
23562;DHT22;11959;49.418;8.728;2024-01-07T01:13:14;6.10;99.90
23562;DHT22;11959;49.418;8.728;2024-01-07T01:15:39;6.10;99.90
23562;DHT22;11959;49.418;8.728;2024-01-07T01:18:05;6.10;99.90
23562;DHT22;11959;49.418;8.728;2024-01-07T01:20:31;6.10;99.90
23562;DHT22;11959;49.418;8.728;2024-01-07T01:22:56;6.10;99.90
23562;DHT22;11959;49.418;8.728;2024-01-07T01:25:22;6.10;99.90
23562;DHT22;11959;49.418;8.728;2024-01-07T01:27:48;6.10;99.90
23562;DHT22;11959;49.418;8.728;2024-01-07T01:30:13;6.10;99.90
23562;DHT22;11959;49.418;8.728;2024-01-07T01:32:39;6.10;99.90
23562;DHT22;11959;49.418;8.728;2024-01-07T01:35:06;6.10;99.90
23562;DHT22;11959;49.418;8.728;2024-01-07T01:37:31;6.10;99.90
23562;DHT22;11959;49.418;8.728;2024-01-07T01:40:00;6.10;99.90
23562;DHT22;11959;49.418;8.728;2024-01-07T01:42:26;6.10;99.90
23562;DHT22;11959;49.418;8.728;2024-01-07T01:44:51;6.10;99.90
23562;DHT22;11959;49.418;8.728;2024-01-07T01:47:18;6.10;99.90
23562;DHT22;11959;49.418;8.728;2024-01-07T01:49:45;6.10;99.90
23562;DHT22;11959;49.418;8.728;2024-01-07T01:52:12;6.10;99.90
23562;DHT22;11959;49.418;8.728;2024-01-07T01:54:39;6.10;99.90
23562;DHT22;11959;49.418;8.728;2024-01-07T01:57:05;6.10;99.90
23562;DHT22;11959;49.418;8.728;2024-01-07T01:59:32;6.10;99.90
23562;DHT22;11959;49.418;8.728;2024-01-07T02:01:59;6.10;99.90
23562;DHT22;11959;49.418;8.728;2024-01-07T02:04:25;6.10;99.90
23562;DHT22;11959;49.418;8.728;2024-01-07T02:06:51;6.10;99.90
23562;DHT22;11959;49.418;8.728;2024-01-07T02:09:16;6.10;99.90
23562;DHT22;11959;49.418;8.728;2024-01-07T02:11:42;6.10;99.90
23562;DHT22;11959;49.418;8.728;2024-01-07T02:14:07;6.10;99.90
23562;DHT22;11959;49.418;8.728;2024-01-07T02:16:33;6.10;99.90
23562;DHT22;11959;49.418;8.728;2024-01-07T02:18:59;6.10;99.90
23562;DHT22;11959;49.418;8.728;2024-01-07T02:21:24;6.00;99.90
23562;DHT22;11959;49.418;8.728;2024-01-07T02:23:50;6.10;99.90
23562;DHT22;11959;49.418;8.728;2024-01-07T02:26:16;6.00;99.90
23562;DHT22;11959;49.418;8.728;2024-01-07T02:28:41;6.00;99.90
23562;DHT22;11959;49.418;8.728;2024-01-07T02:31:07;6.00;99.90
23562;DHT22;11959;49.418;8.728;2024-01-07T02:33:32;6.00;99.90
23562;DHT22;11959;49.418;8.728;2024-01-07T02:35:58;6.00;99.90
23562;DHT22;11959;49.418;8.728;2024-01-07T02:38:24;6.00;99.90
23562;DHT22;11959;49.418;8.728;2024-01-07T02:40:49;6.00;99.90
23562;DHT22;11959;49.418;8.728;2024-01-07T02:43:15;5.90;99.90
23562;DHT22;11959;49.418;8.728;2024-01-07T02:45:41;5.90;99.90
23562;DHT22;11959;49.418;8.728;2024-01-07T02:48:06;5.90;99.90
23562;DHT22;11959;49.418;8.728;2024-01-07T02:50:32;5.90;99.90
23562;DHT22;11959;49.418;8.728;2024-01-07T02:52:58;5.90;99.90
23562;DHT22;11959;49.418;8.728;2024-01-07T02:55:24;5.90;99.90
23562;DHT22;11959;49.418;8.728;2024-01-07T02:57:49;5.90;99.90
23562;DHT22;11959;49.418;8.728;2024-01-07T03:00:15;5.90;99.90
23562;DHT22;11959;49.418;8.728;2024-01-07T03:02:42;5.90;99.90
23562;DHT22;11959;49.418;8.728;2024-01-07T03:05:08;5.90;99.90
23562;DHT22;11959;49.418;8.728;2024-01-07T03:07:34;5.80;99.90
23562;DHT22;11959;49.418;8.728;2024-01-07T03:09:59;5.80;99.90
23562;DHT22;11959;49.418;8.728;2024-01-07T03:12:25;5.80;99.90
23562;DHT22;11959;49.418;8.728;2024-01-07T03:14:51;5.80;99.90
23562;DHT22;11959;49.418;8.728;2024-01-07T03:17:16;5.80;99.90
23562;DHT22;11959;49.418;8.728;2024-01-07T03:19:43;5.80;99.90
23562;DHT22;11959;49.418;8.728;2024-01-07T03:22:08;5.80;99.90
23562;DHT22;11959;49.418;8.728;2024-01-07T03:24:34;5.80;99.90
23562;DHT22;11959;49.418;8.728;2024-01-07T03:27:00;5.80;99.90
23562;DHT22;11959;49.418;8.728;2024-01-07T03:29:25;5.80;99.90
23562;DHT22;11959;49.418;8.728;2024-01-07T03:31:51;5.80;99.90
23562;DHT22;11959;49.418;8.728;2024-01-07T03:34:18;5.80;99.90
23562;DHT22;11959;49.418;8.728;2024-01-07T03:36:44;5.80;99.90
23562;DHT22;11959;49.418;8.728;2024-01-07T03:39:10;5.80;99.90
23562;DHT22;11959;49.418;8.728;2024-01-07T03:41:35;5.80;99.90
23562;DHT22;11959;49.418;8.728;2024-01-07T03:44:01;5.70;99.90
23562;DHT22;11959;49.418;8.728;2024-01-07T03:46:27;5.70;99.90
23562;DHT22;11959;49.418;8.728;2024-01-07T03:48:53;5.70;99.90
23562;DHT22;11959;49.418;8.728;2024-01-07T03:51:18;5.70;99.90
23562;DHT22;11959;49.418;8.728;2024-01-07T03:53:44;5.60;99.90
23562;DHT22;11959;49.418;8.728;2024-01-07T03:56:10;5.60;99.90
23562;DHT22;11959;49.418;8.728;2024-01-07T03:58:35;5.60;99.90
23562;DHT22;11959;49.418;8.728;2024-01-07T04:01:01;5.60;99.90
23562;DHT22;11959;49.418;8.728;2024-01-07T04:03:27;5.60;99.90
23562;DHT22;11959;49.418;8.728;2024-01-07T04:05:52;5.70;99.90
23562;DHT22;11959;49.418;8.728;2024-01-07T04:08:18;5.70;99.90
23562;DHT22;11959;49.418;8.728;2024-01-07T04:10:44;5.70;99.90
23562;DHT22;11959;49.418;8.728;2024-01-07T04:13:10;5.70;99.90
23562;DHT22;11959;49.418;8.728;2024-01-07T04:15:35;5.70;99.90
23562;DHT22;11959;49.418;8.728;2024-01-07T04:18:02;5.70;99.90
23562;DHT22;11959;49.418;8.728;2024-01-07T04:20:29;5.70;99.90
23562;DHT22;11959;49.418;8.728;2024-01-07T04:22:55;5.70;99.90
23562;DHT22;11959;49.418;8.728;2024-01-07T04:25:20;5.70;99.90
23562;DHT22;11959;49.418;8.728;2024-01-07T04:27:46;5.70;99.90
23562;DHT22;11959;49.418;8.728;2024-01-07T04:30:12;5.70;99.90
23562;DHT22;11959;49.418;8.728;2024-01-07T04:32:37;5.80;99.90
23562;DHT22;11959;49.418;8.728;2024-01-07T04:35:03;5.70;99.90
23562;DHT22;11959;49.418;8.728;2024-01-07T04:37:29;5.80;99.90
23562;DHT22;11959;49.418;8.728;2024-01-07T04:39:55;5.80;99.90
23562;DHT22;11959;49.418;8.728;2024-01-07T04:42:20;5.70;99.90
23562;DHT22;11959;49.418;8.728;2024-01-07T04:44:46;5.70;99.90
23562;DHT22;11959;49.418;8.728;2024-01-07T04:47:31;5.80;99.90
23562;DHT22;11959;49.418;8.728;2024-01-07T04:49:57;5.70;99.90
23562;DHT22;11959;49.418;8.728;2024-01-07T04:52:24;5.70;99.90
23562;DHT22;11959;49.418;8.728;2024-01-07T04:54:56;5.70;99.90
23562;DHT22;11959;49.418;8.728;2024-01-07T04:57:22;5.60;99.90
23562;DHT22;11959;49.418;8.728;2024-01-07T04:59:49;5.60;99.90
23562;DHT22;11959;49.418;8.728;2024-01-07T05:02:15;5.70;99.90
23562;DHT22;11959;49.418;8.728;2024-01-07T05:04:41;5.70;99.90
23562;DHT22;11959;49.418;8.728;2024-01-07T05:07:07;5.70;99.90
23562;DHT22;11959;49.418;8.728;2024-01-07T05:09:33;5.70;99.90
23562;DHT22;11959;49.418;8.728;2024-01-07T05:11:59;5.70;99.90
23562;DHT22;11959;49.418;8.728;2024-01-07T05:14:25;5.60;99.90
23562;DHT22;11959;49.418;8.728;2024-01-07T05:16:50;5.60;99.90
23562;DHT22;11959;49.418;8.728;2024-01-07T05:19:16;5.60;99.90
23562;DHT22;11959;49.418;8.728;2024-01-07T05:21:41;5.70;99.90
23562;DHT22;11959;49.418;8.728;2024-01-07T05:24:07;5.70;99.90
23562;DHT22;11959;49.418;8.728;2024-01-07T05:26:40;5.70;99.90
23562;DHT22;11959;49.418;8.728;2024-01-07T05:29:06;5.70;99.90
23562;DHT22;11959;49.418;8.728;2024-01-07T05:31:31;5.70;99.90
23562;DHT22;11959;49.418;8.728;2024-01-07T05:33:57;5.70;99.90
23562;DHT22;11959;49.418;8.728;2024-01-07T05:36:23;5.70;99.90
23562;DHT22;11959;49.418;8.728;2024-01-07T05:38:48;5.70;99.90
23562;DHT22;11959;49.418;8.728;2024-01-07T05:41:14;5.70;99.90
23562;DHT22;11959;49.418;8.728;2024-01-07T05:43:40;5.70;99.90
23562;DHT22;11959;49.418;8.728;2024-01-07T05:46:05;5.70;99.90
23562;DHT22;11959;49.418;8.728;2024-01-07T05:48:44;5.70;99.90
23562;DHT22;11959;49.418;8.728;2024-01-07T05:51:10;5.70;99.90
23562;DHT22;11959;49.418;8.728;2024-01-07T05:53:35;5.70;99.90
23562;DHT22;11959;49.418;8.728;2024-01-07T05:56:01;5.60;99.90
23562;DHT22;11959;49.418;8.728;2024-01-07T05:58:27;5.70;99.90
23562;DHT22;11959;49.418;8.728;2024-01-07T06:00:53;5.70;99.90
23562;DHT22;11959;49.418;8.728;2024-01-07T06:03:18;5.70;99.90
23562;DHT22;11959;49.418;8.728;2024-01-07T06:05:44;5.70;99.90
23562;DHT22;11959;49.418;8.728;2024-01-07T06:08:10;5.70;99.90
23562;DHT22;11959;49.418;8.728;2024-01-07T06:10:35;5.70;99.90
23562;DHT22;11959;49.418;8.728;2024-01-07T06:13:01;5.70;99.90
23562;DHT22;11959;49.418;8.728;2024-01-07T06:15:28;5.70;99.90
23562;DHT22;11959;49.418;8.728;2024-01-07T06:17:54;5.70;99.90
23562;DHT22;11959;49.418;8.728;2024-01-07T06:20:20;5.70;99.90
23562;DHT22;11959;49.418;8.728;2024-01-07T06:22:46;5.70;99.90
23562;DHT22;11959;49.418;8.728;2024-01-07T06:25:12;5.70;99.90
23562;DHT22;11959;49.418;8.728;2024-01-07T06:27:41;5.70;99.90
23562;DHT22;11959;49.418;8.728;2024-01-07T06:30:07;5.70;99.90
23562;DHT22;11959;49.418;8.728;2024-01-07T06:32:33;5.70;99.90
23562;DHT22;11959;49.418;8.728;2024-01-07T06:34:59;5.70;99.90
23562;DHT22;11959;49.418;8.728;2024-01-07T06:37:25;5.70;99.90
23562;DHT22;11959;49.418;8.728;2024-01-07T06:39:51;5.70;99.90
23562;DHT22;11959;49.418;8.728;2024-01-07T06:42:17;5.70;99.90
23562;DHT22;11959;49.418;8.728;2024-01-07T06:44:42;5.80;99.90
23562;DHT22;11959;49.418;8.728;2024-01-07T06:47:08;5.80;99.90
23562;DHT22;11959;49.418;8.728;2024-01-07T06:49:34;5.80;99.90
23562;DHT22;11959;49.418;8.728;2024-01-07T06:51:59;5.70;99.90
23562;DHT22;11959;49.418;8.728;2024-01-07T06:54:25;5.70;99.90
23562;DHT22;11959;49.418;8.728;2024-01-07T06:56:51;5.70;99.90
23562;DHT22;11959;49.418;8.728;2024-01-07T06:59:16;5.70;99.90
23562;DHT22;11959;49.418;8.728;2024-01-07T07:01:43;5.80;99.90
23562;DHT22;11959;49.418;8.728;2024-01-07T07:04:09;5.80;99.90
23562;DHT22;11959;49.418;8.728;2024-01-07T07:06:35;5.80;99.90
23562;DHT22;11959;49.418;8.728;2024-01-07T07:09:01;5.80;99.90
23562;DHT22;11959;49.418;8.728;2024-01-07T07:11:26;5.80;99.90
23562;DHT22;11959;49.418;8.728;2024-01-07T07:13:52;5.80;99.90
23562;DHT22;11959;49.418;8.728;2024-01-07T07:16:18;5.80;99.90
23562;DHT22;11959;49.418;8.728;2024-01-07T07:18:43;5.80;99.90
23562;DHT22;11959;49.418;8.728;2024-01-07T07:21:09;5.80;99.90
23562;DHT22;11959;49.418;8.728;2024-01-07T07:23:34;5.80;99.90
23562;DHT22;11959;49.418;8.728;2024-01-07T07:26:00;5.80;99.90
23562;DHT22;11959;49.418;8.728;2024-01-07T07:28:26;5.80;99.90
23562;DHT22;11959;49.418;8.728;2024-01-07T07:30:52;5.80;99.90
23562;DHT22;11959;49.418;8.728;2024-01-07T07:33:18;5.80;99.90
23562;DHT22;11959;49.418;8.728;2024-01-07T07:35:44;5.80;99.90
23562;DHT22;11959;49.418;8.728;2024-01-07T07:38:09;5.80;99.90
23562;DHT22;11959;49.418;8.728;2024-01-07T07:40:35;5.80;99.90
23562;DHT22;11959;49.418;8.728;2024-01-07T07:43:01;5.80;99.90
23562;DHT22;11959;49.418;8.728;2024-01-07T07:45:26;5.80;99.90
23562;DHT22;11959;49.418;8.728;2024-01-07T07:47:52;5.80;99.90
23562;DHT22;11959;49.418;8.728;2024-01-07T07:50:17;5.80;99.90
23562;DHT22;11959;49.418;8.728;2024-01-07T07:52:43;5.80;99.90
23562;DHT22;11959;49.418;8.728;2024-01-07T07:55:10;5.80;99.90
23562;DHT22;11959;49.418;8.728;2024-01-07T07:57:36;5.80;99.90
23562;DHT22;11959;49.418;8.728;2024-01-07T08:00:04;5.80;99.90
23562;DHT22;11959;49.418;8.728;2024-01-07T08:02:30;5.80;99.90
23562;DHT22;11959;49.418;8.728;2024-01-07T08:04:56;5.80;99.90
23562;DHT22;11959;49.418;8.728;2024-01-07T08:07:21;5.90;99.90
23562;DHT22;11959;49.418;8.728;2024-01-07T08:09:47;5.90;99.90
23562;DHT22;11959;49.418;8.728;2024-01-07T08:12:13;5.80;99.90
23562;DHT22;11959;49.418;8.728;2024-01-07T08:14:38;5.80;99.90
23562;DHT22;11959;49.418;8.728;2024-01-07T08:17:07;5.80;99.90
23562;DHT22;11959;49.418;8.728;2024-01-07T08:19:33;5.80;99.90
23562;DHT22;11959;49.418;8.728;2024-01-07T08:21:59;5.90;99.90
23562;DHT22;11959;49.418;8.728;2024-01-07T08:24:25;5.90;99.90
23562;DHT22;11959;49.418;8.728;2024-01-07T08:26:50;5.90;99.90
23562;DHT22;11959;49.418;8.728;2024-01-07T08:29:17;5.90;99.90
23562;DHT22;11959;49.418;8.728;2024-01-07T08:31:43;5.80;99.90
23562;DHT22;11959;49.418;8.728;2024-01-07T08:34:08;5.90;99.90
23562;DHT22;11959;49.418;8.728;2024-01-07T08:36:34;5.90;99.90
23562;DHT22;11959;49.418;8.728;2024-01-07T08:39:00;5.90;99.90
23562;DHT22;11959;49.418;8.728;2024-01-07T08:41:26;5.90;99.90
23562;DHT22;11959;49.418;8.728;2024-01-07T08:43:51;5.90;99.90
23562;DHT22;11959;49.418;8.728;2024-01-07T08:46:20;6.00;99.90
23562;DHT22;11959;49.418;8.728;2024-01-07T08:48:46;5.90;99.90
23562;DHT22;11959;49.418;8.728;2024-01-07T08:51:12;5.90;99.90
23562;DHT22;11959;49.418;8.728;2024-01-07T08:53:39;5.90;99.90
23562;DHT22;11959;49.418;8.728;2024-01-07T08:56:05;5.90;99.90
23562;DHT22;11959;49.418;8.728;2024-01-07T08:58:32;5.90;99.90
23562;DHT22;11959;49.418;8.728;2024-01-07T09:00:57;5.90;99.90
23562;DHT22;11959;49.418;8.728;2024-01-07T09:03:23;5.90;99.90
23562;DHT22;11959;49.418;8.728;2024-01-07T09:05:49;6.00;99.90
23562;DHT22;11959;49.418;8.728;2024-01-07T09:08:14;6.00;99.90
23562;DHT22;11959;49.418;8.728;2024-01-07T09:10:40;6.00;99.90
23562;DHT22;11959;49.418;8.728;2024-01-07T09:13:06;5.90;99.90
23562;DHT22;11959;49.418;8.728;2024-01-07T09:15:32;5.90;99.90
23562;DHT22;11959;49.418;8.728;2024-01-07T09:17:57;5.90;99.90
23562;DHT22;11959;49.418;8.728;2024-01-07T09:20:23;5.80;99.90
23562;DHT22;11959;49.418;8.728;2024-01-07T09:22:49;5.90;99.90
23562;DHT22;11959;49.418;8.728;2024-01-07T09:25:15;5.90;99.90
23562;DHT22;11959;49.418;8.728;2024-01-07T09:27:42;5.90;99.90
23562;DHT22;11959;49.418;8.728;2024-01-07T09:30:11;5.90;99.90
23562;DHT22;11959;49.418;8.728;2024-01-07T09:32:40;5.80;99.90
23562;DHT22;11959;49.418;8.728;2024-01-07T09:35:06;5.80;99.90
23562;DHT22;11959;49.418;8.728;2024-01-07T09:37:31;5.80;99.90
23562;DHT22;11959;49.418;8.728;2024-01-07T09:39:57;5.80;99.90
23562;DHT22;11959;49.418;8.728;2024-01-07T09:42:23;5.70;99.90
23562;DHT22;11959;49.418;8.728;2024-01-07T09:44:50;5.70;99.90
23562;DHT22;11959;49.418;8.728;2024-01-07T09:47:16;5.60;99.90
23562;DHT22;11959;49.418;8.728;2024-01-07T09:49:42;5.60;99.90
23562;DHT22;11959;49.418;8.728;2024-01-07T09:52:10;5.60;99.90
23562;DHT22;11959;49.418;8.728;2024-01-07T09:54:37;5.60;99.90
23562;DHT22;11959;49.418;8.728;2024-01-07T09:57:04;5.60;99.90
23562;DHT22;11959;49.418;8.728;2024-01-07T09:59:34;5.50;99.90
23562;DHT22;11959;49.418;8.728;2024-01-07T10:02:02;5.50;99.90
23562;DHT22;11959;49.418;8.728;2024-01-07T10:04:28;5.50;99.90
23562;DHT22;11959;49.418;8.728;2024-01-07T10:06:54;5.60;99.90
23562;DHT22;11959;49.418;8.728;2024-01-07T10:09:22;5.50;99.90
23562;DHT22;11959;49.418;8.728;2024-01-07T10:11:51;5.50;99.90
23562;DHT22;11959;49.418;8.728;2024-01-07T10:14:17;5.40;99.90
23562;DHT22;11959;49.418;8.728;2024-01-07T10:16:43;5.50;99.90
23562;DHT22;11959;49.418;8.728;2024-01-07T10:19:09;5.30;99.90
23562;DHT22;11959;49.418;8.728;2024-01-07T10:21:34;5.40;99.90
23562;DHT22;11959;49.418;8.728;2024-01-07T10:24:13;5.40;99.90
23562;DHT22;11959;49.418;8.728;2024-01-07T10:26:40;5.40;99.90
23562;DHT22;11959;49.418;8.728;2024-01-07T10:29:07;5.40;99.90
23562;DHT22;11959;49.418;8.728;2024-01-07T10:31:38;5.40;99.90
23562;DHT22;11959;49.418;8.728;2024-01-07T10:34:09;5.40;99.90
23562;DHT22;11959;49.418;8.728;2024-01-07T10:36:35;5.40;99.90
23562;DHT22;11959;49.418;8.728;2024-01-07T10:39:03;5.40;99.90
23562;DHT22;11959;49.418;8.728;2024-01-07T10:41:29;5.40;99.90
23562;DHT22;11959;49.418;8.728;2024-01-07T10:43:55;5.30;99.90
23562;DHT22;11959;49.418;8.728;2024-01-07T10:46:21;5.30;99.90
23562;DHT22;11959;49.418;8.728;2024-01-07T10:49:00;5.30;99.90
23562;DHT22;11959;49.418;8.728;2024-01-07T10:51:33;5.30;99.90
23562;DHT22;11959;49.418;8.728;2024-01-07T10:53:59;5.40;99.90
23562;DHT22;11959;49.418;8.728;2024-01-07T10:56:38;5.50;99.90
23562;DHT22;11959;49.418;8.728;2024-01-07T10:59:05;5.30;99.90
23562;DHT22;11959;49.418;8.728;2024-01-07T11:01:31;5.30;99.90
23562;DHT22;11959;49.418;8.728;2024-01-07T11:04:17;5.40;99.90
23562;DHT22;11959;49.418;8.728;2024-01-07T11:09:30;5.60;99.90
23562;DHT22;11959;49.418;8.728;2024-01-07T11:11:59;5.50;99.90
23562;DHT22;11959;49.418;8.728;2024-01-07T11:14:37;5.60;99.90
23562;DHT22;11959;49.418;8.728;2024-01-07T11:17:07;5.50;99.90
23562;DHT22;11959;49.418;8.728;2024-01-07T11:19:35;5.60;99.90
23562;DHT22;11959;49.418;8.728;2024-01-07T11:22:29;5.60;99.90
23562;DHT22;11959;49.418;8.728;2024-01-07T11:24:58;5.60;99.90
23562;DHT22;11959;49.418;8.728;2024-01-07T11:27:26;5.50;99.90
23562;DHT22;11959;49.418;8.728;2024-01-07T11:29:56;5.50;99.90
23562;DHT22;11959;49.418;8.728;2024-01-07T11:32:23;5.50;99.90
23562;DHT22;11959;49.418;8.728;2024-01-07T11:34:51;5.60;99.90
23562;DHT22;11959;49.418;8.728;2024-01-07T11:37:19;5.60;99.90
23562;DHT22;11959;49.418;8.728;2024-01-07T11:39:47;5.60;99.90
23562;DHT22;11959;49.418;8.728;2024-01-07T11:42:13;5.60;99.90
23562;DHT22;11959;49.418;8.728;2024-01-07T11:44:55;5.60;99.90
23562;DHT22;11959;49.418;8.728;2024-01-07T11:47:22;5.70;99.90
23562;DHT22;11959;49.418;8.728;2024-01-07T11:49:48;5.70;99.90
23562;DHT22;11959;49.418;8.728;2024-01-07T11:52:16;5.60;99.90
23562;DHT22;11959;49.418;8.728;2024-01-07T11:54:42;5.50;99.90
23562;DHT22;11959;49.418;8.728;2024-01-07T11:57:10;5.50;99.90
23562;DHT22;11959;49.418;8.728;2024-01-07T11:59:37;5.50;99.90
23562;DHT22;11959;49.418;8.728;2024-01-07T12:02:03;5.50;99.90
23562;DHT22;11959;49.418;8.728;2024-01-07T12:04:33;5.50;99.90
23562;DHT22;11959;49.418;8.728;2024-01-07T12:06:59;5.40;99.90
23562;DHT22;11959;49.418;8.728;2024-01-07T12:09:25;5.40;99.90
23562;DHT22;11959;49.418;8.728;2024-01-07T12:11:52;5.40;99.90
23562;DHT22;11959;49.418;8.728;2024-01-07T12:14:18;5.30;99.90
23562;DHT22;11959;49.418;8.728;2024-01-07T12:16:45;5.30;99.90
23562;DHT22;11959;49.418;8.728;2024-01-07T12:19:10;5.20;99.90
23562;DHT22;11959;49.418;8.728;2024-01-07T12:21:36;5.30;99.90
23562;DHT22;11959;49.418;8.728;2024-01-07T12:24:03;5.20;99.90
23562;DHT22;11959;49.418;8.728;2024-01-07T12:26:29;5.30;99.90
23562;DHT22;11959;49.418;8.728;2024-01-07T12:28:57;5.20;99.90
23562;DHT22;11959;49.418;8.728;2024-01-07T12:31:33;5.10;99.90
23562;DHT22;11959;49.418;8.728;2024-01-07T12:34:00;5.10;99.90
23562;DHT22;11959;49.418;8.728;2024-01-07T12:36:26;5.10;99.90
23562;DHT22;11959;49.418;8.728;2024-01-07T12:38:52;5.10;99.90
23562;DHT22;11959;49.418;8.728;2024-01-07T12:41:22;5.00;99.90
23562;DHT22;11959;49.418;8.728;2024-01-07T12:43:48;5.10;99.90
23562;DHT22;11959;49.418;8.728;2024-01-07T12:46:15;5.00;99.90
23562;DHT22;11959;49.418;8.728;2024-01-07T12:48:40;5.00;99.90
23562;DHT22;11959;49.418;8.728;2024-01-07T12:51:06;5.00;99.90
23562;DHT22;11959;49.418;8.728;2024-01-07T12:53:31;5.10;99.90
23562;DHT22;11959;49.418;8.728;2024-01-07T12:55:57;5.10;99.90
23562;DHT22;11959;49.418;8.728;2024-01-07T12:58:23;5.00;99.90
23562;DHT22;11959;49.418;8.728;2024-01-07T13:00:48;5.00;99.90
23562;DHT22;11959;49.418;8.728;2024-01-07T13:03:14;5.00;99.90
23562;DHT22;11959;49.418;8.728;2024-01-07T13:05:46;5.00;99.90
23562;DHT22;11959;49.418;8.728;2024-01-07T13:08:15;5.00;99.90
23562;DHT22;11959;49.418;8.728;2024-01-07T13:10:41;5.00;99.90
23562;DHT22;11959;49.418;8.728;2024-01-07T13:13:07;5.00;99.90
23562;DHT22;11959;49.418;8.728;2024-01-07T13:15:34;5.00;99.90
23562;DHT22;11959;49.418;8.728;2024-01-07T13:18:00;4.90;99.90
23562;DHT22;11959;49.418;8.728;2024-01-07T13:20:25;4.90;99.90
23562;DHT22;11959;49.418;8.728;2024-01-07T13:22:51;4.80;99.90
23562;DHT22;11959;49.418;8.728;2024-01-07T13:25:17;4.80;99.90
23562;DHT22;11959;49.418;8.728;2024-01-07T13:27:42;4.80;99.90
23562;DHT22;11959;49.418;8.728;2024-01-07T13:30:08;4.80;99.90
23562;DHT22;11959;49.418;8.728;2024-01-07T13:32:35;4.80;99.90
23562;DHT22;11959;49.418;8.728;2024-01-07T13:35:07;4.80;99.90
23562;DHT22;11959;49.418;8.728;2024-01-07T13:37:36;4.80;99.90
23562;DHT22;11959;49.418;8.728;2024-01-07T13:40:05;4.80;99.90
23562;DHT22;11959;49.418;8.728;2024-01-07T13:42:33;4.80;99.90
23562;DHT22;11959;49.418;8.728;2024-01-07T13:44:59;4.70;99.90
23562;DHT22;11959;49.418;8.728;2024-01-07T13:47:25;4.70;99.90
23562;DHT22;11959;49.418;8.728;2024-01-07T13:49:50;4.70;99.90
23562;DHT22;11959;49.418;8.728;2024-01-07T13:52:16;4.70;99.90
23562;DHT22;11959;49.418;8.728;2024-01-07T13:54:42;4.70;99.90
23562;DHT22;11959;49.418;8.728;2024-01-07T13:57:07;4.60;99.90
23562;DHT22;11959;49.418;8.728;2024-01-07T13:59:33;4.60;99.90
23562;DHT22;11959;49.418;8.728;2024-01-07T14:01:59;4.60;99.90
23562;DHT22;11959;49.418;8.728;2024-01-07T14:04:25;4.60;99.90
23562;DHT22;11959;49.418;8.728;2024-01-07T14:06:54;4.60;99.90
23562;DHT22;11959;49.418;8.728;2024-01-07T14:09:21;4.60;99.90
23562;DHT22;11959;49.418;8.728;2024-01-07T14:11:47;4.60;99.90
23562;DHT22;11959;49.418;8.728;2024-01-07T14:14:12;4.50;99.90
23562;DHT22;11959;49.418;8.728;2024-01-07T14:16:38;4.50;99.90
23562;DHT22;11959;49.418;8.728;2024-01-07T14:19:05;4.50;99.90
23562;DHT22;11959;49.418;8.728;2024-01-07T14:21:31;4.50;99.90
23562;DHT22;11959;49.418;8.728;2024-01-07T14:23:57;4.40;99.90
23562;DHT22;11959;49.418;8.728;2024-01-07T14:26:22;4.40;99.90
23562;DHT22;11959;49.418;8.728;2024-01-07T14:28:49;4.40;99.90
23562;DHT22;11959;49.418;8.728;2024-01-07T14:31:15;4.40;99.90
23562;DHT22;11959;49.418;8.728;2024-01-07T14:33:41;4.40;99.90
23562;DHT22;11959;49.418;8.728;2024-01-07T14:36:06;4.30;99.90
23562;DHT22;11959;49.418;8.728;2024-01-07T14:38:34;4.30;99.90
23562;DHT22;11959;49.418;8.728;2024-01-07T14:41:00;4.30;99.90
23562;DHT22;11959;49.418;8.728;2024-01-07T14:43:26;4.20;99.90
23562;DHT22;11959;49.418;8.728;2024-01-07T14:45:51;4.20;99.90
23562;DHT22;11959;49.418;8.728;2024-01-07T14:48:17;4.10;99.90
23562;DHT22;11959;49.418;8.728;2024-01-07T14:50:43;4.10;99.90
23562;DHT22;11959;49.418;8.728;2024-01-07T14:53:13;4.00;99.90
23562;DHT22;11959;49.418;8.728;2024-01-07T14:55:38;4.00;99.90
23562;DHT22;11959;49.418;8.728;2024-01-07T14:58:04;4.00;99.90
23562;DHT22;11959;49.418;8.728;2024-01-07T15:00:30;4.00;99.90
23562;DHT22;11959;49.418;8.728;2024-01-07T15:02:55;3.90;99.90
23562;DHT22;11959;49.418;8.728;2024-01-07T15:05:21;3.90;99.90
23562;DHT22;11959;49.418;8.728;2024-01-07T15:07:47;3.80;99.90
23562;DHT22;11959;49.418;8.728;2024-01-07T15:10:17;3.80;99.90
23562;DHT22;11959;49.418;8.728;2024-01-07T15:12:45;3.70;99.90
23562;DHT22;11959;49.418;8.728;2024-01-07T15:15:11;3.70;99.90
23562;DHT22;11959;49.418;8.728;2024-01-07T15:17:37;3.60;99.90
23562;DHT22;11959;49.418;8.728;2024-01-07T15:20:03;3.70;99.90
23562;DHT22;11959;49.418;8.728;2024-01-07T15:22:29;3.70;99.90
23562;DHT22;11959;49.418;8.728;2024-01-07T15:24:54;3.60;99.90
23562;DHT22;11959;49.418;8.728;2024-01-07T15:27:20;3.60;99.90
23562;DHT22;11959;49.418;8.728;2024-01-07T15:29:46;3.60;99.90
23562;DHT22;11959;49.418;8.728;2024-01-07T15:32:12;3.60;99.90
23562;DHT22;11959;49.418;8.728;2024-01-07T15:34:37;3.50;99.90
23562;DHT22;11959;49.418;8.728;2024-01-07T15:37:03;3.60;99.90
23562;DHT22;11959;49.418;8.728;2024-01-07T15:39:29;3.50;99.90
23562;DHT22;11959;49.418;8.728;2024-01-07T15:41:55;3.40;99.90